createdAt,value
2023-12-01T00:02:05.210Z,72.84
2023-12-01T00:04:38.340Z,73.86
2023-12-01T00:07:11.021Z,73.39
2023-12-01T00:09:45.620Z,73.45
2023-12-01T00:12:18.289Z,73.18
2023-12-01T00:14:51.768Z,73.17
2023-12-01T00:17:24.560Z,73.38
2023-12-01T00:19:57.662Z,73.26
2023-12-01T00:22:30.579Z,73.35
2023-12-01T00:25:06.757Z,73.64
2023-12-01T00:27:39.822Z,73.59
2023-12-01T00:30:13.384Z,73.29
2023-12-01T00:32:46.034Z,74.31
2023-12-01T00:35:19.384Z,74.23
2023-12-01T00:37:52.931Z,74.36
2023-12-01T00:40:27.252Z,73.63
2023-12-01T00:43:00.117Z,73.73
2023-12-01T00:45:33.183Z,73.92
2023-12-01T00:48:06.831Z,73.75
2023-12-01T00:50:40.895Z,73.73
2023-12-01T00:53:14.019Z,74.57
2023-12-01T00:55:49.033Z,74.15
2023-12-01T00:58:22.109Z,74.13
2023-12-01T01:00:55.173Z,73.72
2023-12-01T01:03:27.884Z,73.90
2023-12-01T01:06:01.523Z,74.22
2023-12-01T01:08:34.384Z,73.88
2023-12-01T01:11:09.352Z,73.98
2023-12-01T01:13:42.109Z,73.78
2023-12-01T01:16:15.205Z,74.23
2023-12-01T01:18:48.607Z,74.43
2023-12-01T01:21:21.550Z,73.88
2023-12-01T01:23:54.946Z,74.04
2023-12-01T01:26:29.001Z,74.00
2023-12-01T01:29:01.689Z,74.02
2023-12-01T01:31:34.927Z,74.67
2023-12-01T01:34:07.980Z,73.76
2023-12-01T01:36:41.074Z,74.46
2023-12-01T01:39:14.257Z,73.80
2023-12-01T01:41:48.885Z,74.39
2023-12-01T01:44:21.487Z,74.32
2023-12-01T01:46:56.093Z,74.49
2023-12-01T01:49:29.025Z,74.40
2023-12-01T01:52:02.933Z,73.95
2023-12-01T01:54:36.337Z,74.55
2023-12-01T01:57:11.228Z,74.00
2023-12-01T01:59:45.364Z,73.96
2023-12-01T02:02:18.221Z,74.68
2023-12-01T02:04:55.193Z,74.13
2023-12-01T02:07:28.694Z,74.08
2023-12-01T02:10:02.088Z,74.61
2023-12-01T02:12:36.986Z,74.64
2023-12-01T02:15:12.441Z,74.50
2023-12-01T02:17:46.862Z,74.67
2023-12-01T02:20:39.760Z,74.72
2023-12-01T02:23:13.820Z,74.27
2023-12-01T02:25:47.629Z,74.16
2023-12-01T02:28:20.424Z,74.68
2023-12-01T02:30:55.274Z,73.93
2023-12-01T02:33:28.587Z,74.14
2023-12-01T02:36:02.045Z,74.35
2023-12-01T02:38:36.585Z,74.45
2023-12-01T02:41:10.082Z,74.52
2023-12-01T02:43:42.814Z,73.90
2023-12-01T02:46:16.356Z,74.57
2023-12-01T02:48:49.105Z,74.25
2023-12-01T02:51:22.166Z,74.37
2023-12-01T02:53:56.258Z,74.37
2023-12-01T02:56:29.383Z,74.46
2023-12-01T02:59:02.261Z,74.10
2023-12-01T03:01:35.617Z,74.33
2023-12-01T03:04:08.296Z,74.25
2023-12-01T03:06:41.439Z,74.36
2023-12-01T03:09:18.694Z,74.27
2023-12-01T03:11:52.343Z,73.69
2023-12-01T03:14:24.958Z,73.83
2023-12-01T03:16:57.939Z,74.53
2023-12-01T03:19:31.481Z,74.26
2023-12-01T03:22:05.013Z,74.02
2023-12-01T03:24:40.685Z,74.29
2023-12-01T03:27:13.312Z,73.54
2023-12-01T03:29:46.314Z,73.75
2023-12-01T03:32:19.336Z,74.40
2023-12-01T03:34:52.763Z,74.28
2023-12-01T03:37:25.641Z,74.13
2023-12-01T03:40:00.054Z,74.15
2023-12-01T03:42:33.376Z,74.42
2023-12-01T03:45:08.338Z,73.76
2023-12-01T03:47:42.833Z,73.58
2023-12-01T03:50:16.275Z,74.00
2023-12-01T03:52:51.020Z,73.83
2023-12-01T03:55:25.926Z,73.48
2023-12-01T03:57:58.972Z,74.25
2023-12-01T04:00:34.467Z,74.04
2023-12-01T04:03:07.264Z,74.41
2023-12-01T04:05:40.355Z,74.50
2023-12-01T04:08:13.063Z,73.91
2023-12-01T04:10:48.850Z,74.22
2023-12-01T04:13:22.584Z,73.65
2023-12-01T04:15:56.774Z,74.32
2023-12-01T04:18:31.323Z,74.51
2023-12-01T04:21:09.644Z,73.89
2023-12-01T04:23:42.942Z,74.79
2023-12-01T04:26:17.260Z,73.88
2023-12-01T04:28:50.571Z,73.88
2023-12-01T04:31:23.575Z,73.58
2023-12-01T04:33:56.692Z,74.21
2023-12-01T04:36:29.983Z,73.64
2023-12-01T04:39:04.937Z,73.94
2023-12-01T04:41:39.540Z,73.98
2023-12-01T04:44:12.879Z,74.67
2023-12-01T04:46:45.920Z,74.55
2023-12-01T04:49:18.878Z,73.95
2023-12-01T04:51:51.573Z,73.85
2023-12-01T04:54:24.642Z,74.46
2023-12-01T04:56:59.318Z,74.65
2023-12-01T04:59:32.875Z,74.31
2023-12-01T05:02:06.355Z,74.12
2023-12-01T05:04:39.171Z,74.44
2023-12-01T05:07:12.721Z,74.76
2023-12-01T05:09:45.349Z,74.95
2023-12-01T05:12:20.088Z,74.32
2023-12-01T05:14:53.111Z,74.39
2023-12-01T05:17:25.768Z,73.92
2023-12-01T05:19:59.042Z,74.22
2023-12-01T05:22:31.945Z,74.84
2023-12-01T05:25:05.552Z,74.41
2023-12-01T05:27:39.729Z,74.04
2023-12-01T05:30:14.056Z,73.75
2023-12-01T05:32:50.037Z,74.24
2023-12-01T05:35:23.703Z,74.42
2023-12-01T05:37:59.238Z,74.40
2023-12-01T05:40:35.636Z,74.25
2023-12-01T05:43:11.178Z,74.30
2023-12-01T05:45:43.965Z,74.80
2023-12-01T05:48:18.348Z,73.92
2023-12-01T05:50:50.986Z,74.24
2023-12-01T05:53:24.292Z,74.76
2023-12-01T05:55:58.513Z,74.26
2023-12-01T05:58:32.908Z,74.17
2023-12-01T06:01:06.168Z,74.46
2023-12-01T06:03:39.703Z,74.23
2023-12-01T06:06:12.556Z,75.12
2023-12-01T06:08:45.500Z,75.14
2023-12-01T06:11:19.295Z,75.12
2023-12-01T06:13:54.351Z,75.01
2023-12-01T06:16:27.111Z,74.56
2023-12-01T06:19:02.150Z,75.00
2023-12-01T06:21:35.630Z,74.30
2023-12-01T06:24:09.126Z,74.26
2023-12-01T06:26:42.107Z,74.80
2023-12-01T06:29:16.707Z,74.70
2023-12-01T06:31:49.827Z,75.01
2023-12-01T06:34:23.094Z,74.46
2023-12-01T06:37:00.413Z,75.13
2023-12-01T06:39:34.488Z,74.75
2023-12-01T06:42:07.125Z,75.28
2023-12-01T06:44:41.760Z,74.49
2023-12-01T06:47:14.924Z,75.21
2023-12-01T06:49:48.150Z,74.83
2023-12-01T06:52:21.025Z,75.28
2023-12-01T06:54:54.009Z,74.65
2023-12-01T06:57:27.013Z,74.12
2023-12-01T07:00:01.894Z,74.42
2023-12-01T07:02:39.160Z,74.41
2023-12-01T07:05:21.380Z,74.53
2023-12-01T07:07:54.150Z,74.84
2023-12-01T07:10:29.087Z,75.09
2023-12-01T07:13:02.439Z,74.99
2023-12-01T07:15:38.736Z,74.54
2023-12-01T07:18:12.921Z,74.43
2023-12-01T07:20:46.165Z,74.38
2023-12-01T07:23:21.714Z,74.21
2023-12-01T07:25:54.685Z,74.67
2023-12-01T07:28:28.681Z,74.42
2023-12-01T07:31:03.214Z,74.18
2023-12-01T07:33:36.443Z,74.31
2023-12-01T07:36:13.371Z,74.50
2023-12-01T07:38:47.782Z,75.37
2023-12-01T07:41:22.701Z,74.76
2023-12-01T07:43:56.713Z,74.21
2023-12-01T07:46:34.173Z,75.06
2023-12-01T07:49:12.709Z,74.04
2023-12-01T07:51:46.703Z,74.62
2023-12-01T07:54:20.693Z,74.41
2023-12-01T07:56:53.981Z,74.29
2023-12-01T07:59:26.721Z,74.72
2023-12-01T08:02:02.976Z,75.04
2023-12-01T08:04:36.112Z,74.75
2023-12-01T08:07:10.132Z,74.10
2023-12-01T08:09:43.992Z,75.05
2023-12-01T08:12:20.056Z,74.49
2023-12-01T08:14:52.951Z,74.54
2023-12-01T08:17:27.423Z,74.51
2023-12-01T08:20:00.232Z,74.00
2023-12-01T08:22:33.208Z,74.57
2023-12-01T08:25:08.402Z,74.14
2023-12-01T08:27:41.797Z,73.48
2023-12-01T08:30:19.148Z,74.29
2023-12-01T08:32:55.269Z,73.31
2023-12-01T08:35:28.140Z,73.71
2023-12-01T08:38:01.966Z,73.51
2023-12-01T08:40:43.136Z,73.05
2023-12-01T08:43:17.733Z,73.71
2023-12-01T08:45:51.109Z,73.36
2023-12-01T08:48:25.328Z,73.13
2023-12-01T08:50:58.808Z,73.65
2023-12-01T08:53:31.909Z,73.98
2023-12-01T08:56:05.237Z,73.46
2023-12-01T08:58:38.802Z,74.26
2023-12-01T09:01:11.636Z,74.49
2023-12-01T09:03:47.725Z,74.06
2023-12-01T09:06:21.022Z,73.80
2023-12-01T09:08:54.321Z,73.73
2023-12-01T09:11:27.200Z,74.03
2023-12-01T09:14:01.350Z,73.90
2023-12-01T09:16:34.599Z,74.13
2023-12-01T09:19:09.735Z,73.79
2023-12-01T09:21:42.673Z,74.00
2023-12-01T09:24:15.877Z,74.14
2023-12-01T09:26:49.230Z,73.95
2023-12-01T09:29:22.104Z,74.72
2023-12-01T09:31:55.353Z,74.79
2023-12-01T09:34:29.355Z,73.82
2023-12-01T09:37:04.585Z,74.32
2023-12-01T09:39:37.687Z,74.42
2023-12-01T09:42:11.299Z,73.71
2023-12-01T09:44:44.860Z,73.62
2023-12-01T09:47:19.972Z,74.28
2023-12-01T09:49:54.082Z,74.53
2023-12-01T09:52:27.381Z,73.88
2023-12-01T09:55:08.235Z,74.01
2023-12-01T09:57:44.432Z,73.86
2023-12-01T10:00:18.422Z,74.20
2023-12-01T10:02:52.240Z,74.32
2023-12-01T10:05:27.126Z,73.69
2023-12-01T10:08:00.491Z,73.82
2023-12-01T10:10:34.510Z,74.05
2023-12-01T10:13:09.399Z,73.74
2023-12-01T10:15:42.363Z,74.28
2023-12-01T10:18:23.516Z,74.08
2023-12-01T10:21:05.191Z,74.01
2023-12-01T10:23:39.210Z,73.72
2023-12-01T10:26:14.933Z,74.37
2023-12-01T10:28:47.817Z,74.45
2023-12-01T10:31:20.882Z,74.24
2023-12-01T10:33:54.334Z,74.38
2023-12-01T10:36:28.403Z,74.21
2023-12-01T10:39:01.698Z,73.52
2023-12-01T10:41:39.073Z,73.95
2023-12-01T10:44:17.761Z,74.88
2023-12-01T10:46:51.971Z,74.76
2023-12-01T10:49:25.596Z,74.59
2023-12-01T10:52:02.200Z,74.05
2023-12-01T10:54:36.370Z,74.77
2023-12-01T10:57:16.602Z,74.89
2023-12-01T10:59:59.923Z,74.43
2023-12-01T11:02:36.186Z,74.92
2023-12-01T11:05:11.450Z,74.17
2023-12-01T11:07:59.526Z,74.32
2023-12-01T11:10:40.143Z,75.03
2023-12-01T11:13:24.594Z,74.74
2023-12-01T11:15:59.235Z,74.56
2023-12-01T11:18:32.556Z,74.86
2023-12-01T11:21:06.997Z,74.42
2023-12-01T11:23:41.133Z,74.92
2023-12-01T11:26:14.355Z,74.52
2023-12-01T11:28:56.947Z,74.29
2023-12-01T11:31:38.925Z,74.28
2023-12-01T11:34:14.844Z,75.12
2023-12-01T11:36:51.389Z,75.24
2023-12-01T11:39:32.722Z,75.13
2023-12-01T11:42:18.346Z,74.46
2023-12-01T11:44:52.113Z,75.38
2023-12-01T11:47:25.310Z,75.30
2023-12-01T11:49:58.317Z,74.46
2023-12-01T11:52:33.772Z,74.84
2023-12-01T11:55:17.630Z,74.26
2023-12-01T11:57:56.197Z,74.42
2023-12-01T12:00:29.196Z,74.96
2023-12-01T12:03:02.656Z,75.26
2023-12-01T12:05:35.339Z,74.64
2023-12-01T12:08:08.273Z,75.14
2023-12-01T12:10:43.487Z,75.19
2023-12-01T12:13:16.124Z,75.18
2023-12-01T12:15:49.771Z,74.86
2023-12-01T12:18:26.293Z,74.99
2023-12-01T12:21:02.539Z,74.44
2023-12-01T12:23:35.512Z,74.35
2023-12-01T12:26:17.088Z,74.44
2023-12-01T12:28:56.066Z,74.87
2023-12-01T12:31:31.844Z,75.23
2023-12-01T12:34:08.293Z,74.74
2023-12-01T12:36:41.422Z,74.63
2023-12-01T12:39:18.215Z,75.19
2023-12-01T12:42:00.783Z,75.36
2023-12-01T12:44:36.640Z,75.12
2023-12-01T12:47:13.217Z,74.98
2023-12-01T12:49:47.413Z,75.46
2023-12-01T12:52:20.591Z,75.26
2023-12-01T12:54:57.709Z,74.95
2023-12-01T12:57:32.858Z,74.65
2023-12-01T13:00:10.256Z,74.90
2023-12-01T13:02:43.032Z,74.83
2023-12-01T13:05:16.160Z,75.69
2023-12-01T13:07:49.489Z,75.02
2023-12-01T13:10:22.795Z,75.06
2023-12-01T13:12:57.934Z,75.08
2023-12-01T13:15:31.287Z,75.70
2023-12-01T13:18:04.042Z,75.03
2023-12-01T13:20:37.626Z,76.02
2023-12-01T13:23:10.378Z,75.39
2023-12-01T13:25:43.792Z,75.61
2023-12-01T13:28:18.383Z,75.80
2023-12-01T13:30:52.056Z,75.17
2023-12-01T13:33:26.773Z,75.79
2023-12-01T13:36:00.349Z,76.10
2023-12-01T13:38:33.465Z,75.92
2023-12-01T13:41:09.197Z,76.19
2023-12-01T13:43:43.376Z,75.93
2023-12-01T13:46:16.918Z,75.95
2023-12-01T13:48:49.864Z,75.38
2023-12-01T13:51:23.437Z,76.23
2023-12-01T13:53:57.179Z,76.35
2023-12-01T13:56:30.687Z,76.64
2023-12-01T13:59:04.729Z,75.92
2023-12-01T14:01:40.872Z,75.71
2023-12-01T14:04:17.050Z,76.14
2023-12-01T14:06:54.278Z,76.27
2023-12-01T14:09:27.239Z,76.30
2023-12-01T14:12:00.198Z,76.37
2023-12-01T14:14:34.555Z,76.03
2023-12-01T14:17:09.490Z,76.52
2023-12-01T14:19:43.956Z,76.81
2023-12-01T14:22:17.195Z,76.63
2023-12-01T14:24:51.507Z,76.14
2023-12-01T14:27:25.472Z,76.94
2023-12-01T14:29:59.655Z,76.46
2023-12-01T14:32:33.118Z,76.73
2023-12-01T14:35:06.534Z,76.88
2023-12-01T14:37:40.518Z,76.74
2023-12-01T14:40:13.842Z,76.54
2023-12-01T14:42:46.562Z,77.00
2023-12-01T14:45:21.257Z,76.99
2023-12-01T14:47:54.861Z,76.62
2023-12-01T14:50:37.908Z,76.25
2023-12-01T14:53:26.143Z,76.87
2023-12-01T14:56:11.258Z,76.51
2023-12-01T14:59:07.453Z,76.98
2023-12-01T15:01:42.430Z,76.11
2023-12-01T15:04:15.104Z,76.44
2023-12-01T15:06:50.081Z,76.17
2023-12-01T15:09:23.022Z,77.16
2023-12-01T15:11:56.457Z,76.78
2023-12-01T15:14:29.477Z,76.49
2023-12-01T15:17:04.746Z,77.20
2023-12-01T15:19:37.473Z,77.21
2023-12-01T15:22:10.452Z,76.99
2023-12-01T15:24:45.375Z,76.77
2023-12-01T15:27:31.202Z,76.36
2023-12-01T15:30:09.705Z,76.32
2023-12-01T15:33:03.134Z,77.17
2023-12-01T15:35:39.437Z,76.43
2023-12-01T15:38:15.106Z,77.30
2023-12-01T15:40:48.100Z,77.20
2023-12-01T15:43:21.444Z,76.50
2023-12-01T15:45:57.493Z,77.13
2023-12-01T15:48:32.342Z,76.48
2023-12-01T15:51:06.634Z,77.22
2023-12-01T15:53:39.709Z,77.22
2023-12-01T15:56:12.624Z,76.26
2023-12-01T15:58:46.036Z,77.06
2023-12-01T16:01:19.620Z,76.90
2023-12-01T16:03:54.427Z,76.48
2023-12-01T16:06:31.509Z,76.20
2023-12-01T16:09:33.727Z,76.80
2023-12-01T16:12:08.573Z,76.68
2023-12-01T16:14:41.685Z,76.40
2023-12-01T16:17:17.529Z,76.87
2023-12-01T16:19:54.667Z,76.68
2023-12-01T16:22:31.754Z,76.39
2023-12-01T16:25:08.358Z,77.10
2023-12-01T16:27:41.832Z,76.42
2023-12-01T16:30:15.456Z,77.15
2023-12-01T16:32:49.495Z,76.38
2023-12-01T16:35:23.806Z,76.86
2023-12-01T16:37:58.178Z,77.25
2023-12-01T16:40:31.062Z,76.55
2023-12-01T16:43:04.482Z,76.42
2023-12-01T16:45:37.456Z,76.43
2023-12-01T16:48:10.877Z,76.16
2023-12-01T16:50:45.673Z,76.33
2023-12-01T16:53:18.777Z,77.20
2023-12-01T16:55:56.968Z,76.71
2023-12-01T16:58:29.855Z,75.90
2023-12-01T17:01:03.136Z,76.16
2023-12-01T17:03:38.511Z,75.98
2023-12-01T17:06:13.590Z,76.92
2023-12-01T17:08:46.289Z,76.90
2023-12-01T17:11:19.821Z,76.05
2023-12-01T17:13:52.901Z,76.34
2023-12-01T17:16:26.410Z,76.93
2023-12-01T17:18:59.546Z,76.20
2023-12-01T17:21:33.961Z,76.54
2023-12-01T17:24:07.621Z,76.89
2023-12-01T17:26:40.687Z,76.54
2023-12-01T17:29:18.627Z,76.36
2023-12-01T17:31:53.085Z,76.67
2023-12-01T17:34:26.425Z,77.22
2023-12-01T17:37:01.382Z,77.21
2023-12-01T17:39:34.181Z,76.99
2023-12-01T17:42:09.702Z,77.04
2023-12-01T17:44:42.372Z,77.10
2023-12-01T17:47:18.344Z,77.21
2023-12-01T17:49:51.293Z,77.39
2023-12-01T17:52:25.620Z,76.90
2023-12-01T17:54:58.723Z,77.90
2023-12-01T17:57:33.396Z,77.62
2023-12-01T18:00:09.416Z,77.20
2023-12-01T18:02:50.533Z,76.85
2023-12-01T18:05:24.522Z,77.29
2023-12-01T18:08:04.971Z,77.04
2023-12-01T18:10:37.917Z,77.55
2023-12-01T18:13:11.200Z,76.84
2023-12-01T18:15:43.891Z,76.44
2023-12-01T18:18:17.293Z,77.52
2023-12-01T18:20:50.330Z,76.71
2023-12-01T18:23:25.258Z,77.31
2023-12-01T18:25:58.077Z,77.08
2023-12-01T18:28:31.612Z,76.87
2023-12-01T18:31:04.500Z,77.14
2023-12-01T18:33:38.246Z,77.01
2023-12-01T18:36:14.820Z,76.97
2023-12-01T18:38:49.802Z,77.01
2023-12-01T18:41:22.551Z,77.08
2023-12-01T18:43:55.849Z,76.80
2023-12-01T18:46:29.316Z,76.39
2023-12-01T18:49:01.966Z,76.26
2023-12-01T18:51:35.118Z,76.72
2023-12-01T18:54:09.707Z,76.55
2023-12-01T18:56:42.806Z,76.78
2023-12-01T18:59:16.528Z,76.93
2023-12-01T19:01:49.446Z,76.61
2023-12-01T19:04:22.851Z,76.98
2023-12-01T19:06:55.831Z,76.77
2023-12-01T19:09:30.442Z,76.60
2023-12-01T19:12:04.357Z,77.17
2023-12-01T19:14:37.561Z,76.58
2023-12-01T19:17:10.653Z,77.20
2023-12-01T19:19:43.774Z,77.03
2023-12-01T19:22:16.747Z,76.99
2023-12-01T19:24:51.166Z,77.27
2023-12-01T19:27:24.180Z,76.66
2023-12-01T19:29:57.173Z,76.88
2023-12-01T19:32:31.087Z,76.75
2023-12-01T19:35:04.247Z,77.11
2023-12-01T19:37:37.324Z,77.08
2023-12-01T19:40:14.556Z,76.64
2023-12-01T19:42:48.230Z,77.04
2023-12-01T19:45:21.087Z,76.46
2023-12-01T19:47:54.623Z,76.63
2023-12-01T19:50:27.355Z,77.18
2023-12-01T19:53:00.996Z,76.65
2023-12-01T19:55:37.022Z,77.09
2023-12-01T19:58:25.317Z,76.40
2023-12-01T20:01:18.794Z,76.35
2023-12-01T20:03:51.967Z,75.92
2023-12-01T20:06:25.222Z,75.58
2023-12-01T20:08:59.530Z,76.42
2023-12-01T20:11:33.545Z,76.29
2023-12-01T20:14:09.826Z,76.22
2023-12-01T20:16:45.389Z,75.97
2023-12-01T20:19:18.769Z,75.79
2023-12-01T20:21:51.852Z,75.84
2023-12-01T20:24:25.450Z,76.08
2023-12-01T20:26:59.453Z,75.85
2023-12-01T20:29:33.430Z,76.16
2023-12-01T20:32:07.429Z,75.75
2023-12-01T20:34:43.273Z,75.71
2023-12-01T20:37:15.963Z,76.54
2023-12-01T20:39:49.615Z,76.41
2023-12-01T20:42:23.864Z,76.55
2023-12-01T20:44:58.148Z,76.50
2023-12-01T20:47:31.508Z,76.39
2023-12-01T20:50:06.756Z,75.73
2023-12-01T20:52:40.644Z,76.21
2023-12-01T20:55:17.709Z,76.07
2023-12-01T20:57:53.423Z,75.87
2023-12-01T21:00:29.302Z,75.95
2023-12-01T21:03:02.535Z,76.35
2023-12-01T21:05:35.678Z,76.54
2023-12-01T21:08:08.425Z,75.68
2023-12-01T21:10:41.653Z,76.06
2023-12-01T21:13:16.111Z,76.07
2023-12-01T21:15:49.381Z,75.56
2023-12-01T21:18:22.168Z,76.46
2023-12-01T21:20:55.185Z,75.87
2023-12-01T21:23:28.215Z,76.16
2023-12-01T21:26:01.562Z,76.53
2023-12-01T21:28:36.820Z,76.18
2023-12-01T21:31:12.127Z,76.16
2023-12-01T21:33:45.293Z,76.52
2023-12-01T21:36:19.189Z,76.31
2023-12-01T21:38:53.231Z,76.02
2023-12-01T21:41:27.139Z,75.90
2023-12-01T21:44:02.118Z,75.73
2023-12-01T21:46:35.073Z,75.88
2023-12-01T21:49:09.085Z,76.10
2023-12-01T21:51:42.346Z,75.63
2023-12-01T21:54:15.318Z,75.58
2023-12-01T21:56:48.788Z,75.29
2023-12-01T21:59:23.064Z,75.38
2023-12-01T22:01:56.695Z,75.20
2023-12-01T22:04:30.072Z,75.22
2023-12-01T22:07:02.859Z,75.29
2023-12-01T22:09:35.697Z,75.92
2023-12-01T22:12:09.391Z,75.59
2023-12-01T22:14:44.376Z,75.60
2023-12-01T22:17:17.689Z,75.52
2023-12-01T22:19:50.362Z,75.17
2023-12-01T22:22:23.776Z,75.09
2023-12-01T22:24:56.956Z,74.79
2023-12-01T22:27:30.060Z,75.63
2023-12-01T22:30:05.290Z,75.29
2023-12-01T22:32:39.192Z,75.63
2023-12-01T22:35:12.292Z,75.60
2023-12-01T22:37:45.511Z,75.36
2023-12-01T22:40:18.969Z,75.69
2023-12-01T22:42:52.048Z,75.00
2023-12-01T22:45:26.260Z,75.45
2023-12-01T22:47:59.385Z,75.19
2023-12-01T22:50:32.380Z,75.39
2023-12-01T22:53:05.761Z,75.43
2023-12-01T22:55:38.495Z,75.40
2023-12-01T22:58:11.993Z,74.97
2023-12-01T23:00:45.978Z,75.52
2023-12-01T23:03:19.326Z,75.83
2023-12-01T23:05:52.582Z,75.08
2023-12-01T23:08:26.343Z,75.71
2023-12-01T23:10:59.517Z,75.58
2023-12-01T23:13:32.132Z,75.14
2023-12-01T23:16:08.124Z,75.67
2023-12-01T23:18:41.713Z,75.01
2023-12-01T23:21:14.417Z,74.96
2023-12-01T23:23:47.811Z,75.39
2023-12-01T23:26:20.774Z,75.02
2023-12-01T23:28:54.135Z,75.80
2023-12-01T23:31:28.238Z,75.24
2023-12-01T23:34:01.645Z,75.23
2023-12-01T23:36:34.544Z,75.98
2023-12-01T23:39:07.781Z,75.98
2023-12-01T23:41:40.597Z,75.51
2023-12-01T23:44:13.923Z,75.51
2023-12-01T23:46:47.900Z,75.50
2023-12-01T23:49:20.932Z,75.03
2023-12-01T23:51:54.492Z,74.67
2023-12-01T23:54:27.990Z,75.19
2023-12-01T23:57:01.029Z,74.99
2023-12-01T23:59:34.023Z,74.87
